Time;durP1;ratioP1;P1;durP2;ratioP2;P2;SDS_P1;SDS_P2;PMS_P1;PMS_P2;Temp;Humidity;BMP_temperature;BMP_pressure;BME280_temperature;BME280_humidity;BME280_pressure;Samples;Min_cycle;Max_cycle;Signal;HPM_P1;HPM_P2
2021/05/17 00:02:02;;;;;;;4.43;2.77;;;12.90;81.30;;;;;;5004535;28;20049;-81
2021/05/17 00:04:37;;;;;;;7.00;3.50;;;12.80;81.20;;;;;;4980436;28;20153;-81
2021/05/17 00:07:05;;;;;;;4.50;2.70;;;12.80;81.30;;;;;;5001826;28;20034;-81
2021/05/17 00:09:31;;;;;;;4.57;2.80;;;12.80;81.50;;;;;;5009853;28;20034;-80
2021/05/17 00:11:58;;;;;;;5.40;2.40;;;12.70;81.70;;;;;;5010555;28;20033;-80
2021/05/17 00:14:26;;;;;;;7.47;3.27;;;12.60;82.00;;;;;;5009149;28;20048;-80
2021/05/17 00:16:53;;;;;;;7.07;3.00;;;12.60;82.30;;;;;;5010443;28;20030;-80
2021/05/17 00:19:19;;;;;;;6.27;2.50;;;12.60;82.60;;;;;;4990083;28;20038;-81
2021/05/17 00:21:45;;;;;;;5.90;2.30;;;12.50;82.80;;;;;;5009752;28;20113;-80
2021/05/17 00:24:13;;;;;;;3.97;2.33;;;12.50;83.00;;;;;;5010064;28;20042;-79
2021/05/17 00:26:39;;;;;;;4.13;2.50;;;12.40;83.10;;;;;;5008569;28;20053;-80
2021/05/17 00:29:11;;;;;;;5.73;2.60;;;12.40;83.40;;;;;;5009994;28;20037;-80
2021/05/17 00:31:42;;;;;;;4.60;2.83;;;12.30;83.50;;;;;;5010847;28;20088;-80
2021/05/17 00:34:09;;;;;;;7.97;2.70;;;12.20;83.70;;;;;;5009711;28;20170;-82
2021/05/17 00:36:35;;;;;;;3.50;2.10;;;12.20;84.00;;;;;;5008953;28;20064;-81
2021/05/17 00:39:04;;;;;;;6.50;1.97;;;12.10;84.40;;;;;;5009457;28;20034;-80
2021/05/17 00:41:30;;;;;;;5.00;2.10;;;12.00;84.40;;;;;;5008441;28;20030;-80
2021/05/17 00:43:56;;;;;;;4.10;2.00;;;12.00;84.50;;;;;;4993258;28;20391;-81
2021/05/17 00:46:24;;;;;;;5.63;2.00;;;12.00;84.60;;;;;;5010258;28;20030;-83
2021/05/17 00:48:50;;;;;;;4.70;2.10;;;12.00;84.80;;;;;;5008847;28;20037;-80
2021/05/17 00:51:16;;;;;;;4.50;2.50;;;12.00;84.80;;;;;;5004081;28;20542;-80
2021/05/17 00:53:43;;;;;;;4.77;2.10;;;12.00;84.90;;;;;;4988892;28;20018;-80
2021/05/17 00:56:09;;;;;;;5.90;2.40;;;11.90;84.90;;;;;;4991234;28;20057;-82
2021/05/17 00:58:35;;;;;;;3.33;1.50;;;11.90;85.10;;;;;;4996804;28;20034;-81
2021/05/17 01:01:02;;;;;;;3.63;2.10;;;11.80;85.10;;;;;;5012573;28;20132;-81
2021/05/17 01:03:28;;;;;;;6.90;2.00;;;11.90;85.20;;;;;;5010046;28;20042;-82
2021/05/17 01:05:55;;;;;;;2.83;1.90;;;11.90;85.30;;;;;;5008618;28;20038;-81
2021/05/17 01:08:26;;;;;;;4.10;2.20;;;11.90;85.20;;;;;;5009870;28;20490;-82
2021/05/17 01:10:56;;;;;;;5.70;2.10;;;11.90;85.30;;;;;;4973458;28;20034;-81
2021/05/17 01:13:22;;;;;;;5.70;1.90;;;11.90;85.30;;;;;;4993888;28;20029;-82
2021/05/17 01:15:48;;;;;;;3.47;1.97;;;11.90;85.30;;;;;;5010180;28;20514;-81
2021/05/17 01:18:17;;;;;;;3.27;1.70;;;12.00;85.20;;;;;;5006797;28;20015;-81
2021/05/17 01:20:47;;;;;;;4.13;1.90;;;12.00;85.40;;;;;;5010608;28;20030;-81
2021/05/17 01:25:59;;;;;;;4.70;1.80;;;11.90;85.10;;;;;;4995755;28;20134;-81
2021/05/17 01:28:31;;;;;;;5.73;1.70;;;11.90;85.20;;;;;;5010249;28;20119;-82
2021/05/17 01:31:04;;;;;;;6.03;2.10;;;11.80;85.30;;;;;;5010787;28;20034;-81
2021/05/17 01:33:34;;;;;;;;;;;11.90;85.40;;;;;;5010059;28;20557;-82
2021/05/17 01:36:00;;;;;;;2.83;1.57;;;11.90;85.20;;;;;;5006242;28;19905;-80
2021/05/17 01:38:27;;;;;;;2.83;1.50;;;11.80;85.10;;;;;;5009227;28;20501;-81
2021/05/17 01:40:54;;;;;;;3.00;1.40;;;11.80;85.10;;;;;;5014003;28;20041;-80
2021/05/17 01:43:22;;;;;;;5.20;1.47;;;11.90;85.10;;;;;;4976617;28;20030;-81
2021/05/17 01:45:48;;;;;;;4.47;1.47;;;11.90;84.90;;;;;;5011335;28;20117;-81
2021/05/17 01:48:19;;;;;;;5.83;1.30;;;11.90;84.80;;;;;;5014605;28;20084;-81
2021/05/17 01:50:45;;;;;;;3.80;1.40;;;12.00;84.70;;;;;;5008362;28;20038;-81
2021/05/17 01:53:11;;;;;;;2.17;1.00;;;12.00;84.60;;;;;;5012670;28;20605;-81
2021/05/17 01:55:40;;;;;;;3.70;1.10;;;12.00;84.50;;;;;;4979954;28;20043;-81
2021/05/17 01:58:12;;;;;;;3.13;1.40;;;12.00;84.50;;;;;;4994498;28;20501;-80
2021/05/17 02:00:40;;;;;;;1.90;0.80;;;12.00;84.40;;;;;;5011480;28;20029;-80
2021/05/17 02:03:08;;;;;;;3.60;1.13;;;12.00;84.30;;;;;;5011824;28;20054;-80
2021/05/17 02:05:34;;;;;;;2.87;1.10;;;12.10;84.30;;;;;;5009778;28;20038;-81
2021/05/17 02:08:02;;;;;;;3.73;1.20;;;12.10;84.20;;;;;;5020301;28;20025;-80
2021/05/17 02:10:28;;;;;;;2.60;1.20;;;12.10;84.10;;;;;;5014383;28;20026;-79
2021/05/17 02:12:56;;;;;;;2.87;1.20;;;12.10;84.00;;;;;;5013229;28;20816;-80
2021/05/17 02:15:22;;;;;;;2.20;0.93;;;12.00;84.00;;;;;;5011134;28;20042;-80
2021/05/17 02:18:01;;;;;;;2.40;0.90;;;12.10;84.10;;;;;;4994612;28;20052;-80
2021/05/17 02:20:30;;;;;;;3.47;1.20;;;12.00;84.10;;;;;;5013724;28;20116;-79
2021/05/17 02:22:57;;;;;;;2.70;0.80;;;12.00;84.20;;;;;;4997422;28;20034;-80
2021/05/17 02:25:24;;;;;;;3.20;0.83;;;11.90;84.10;;;;;;5011108;28;20054;-80
2021/05/17 02:27:50;;;;;;;1.40;0.70;;;11.90;84.30;;;;;;5011022;28;20042;-81
2021/05/17 02:30:16;;;;;;;3.87;1.00;;;11.80;84.30;;;;;;5011748;28;20494;-80
2021/05/17 02:32:43;;;;;;;2.83;1.03;;;11.80;84.60;;;;;;4995403;28;20045;-80
2021/05/17 02:35:09;;;;;;;4.60;0.90;;;11.80;84.70;;;;;;5011767;28;20030;-81
2021/05/17 02:37:35;;;;;;;2.33;0.90;;;11.80;84.70;;;;;;5031930;28;20045;-81
2021/05/17 02:40:05;;;;;;;1.70;0.70;;;11.80;84.60;;;;;;5013852;28;20185;-80
2021/05/17 02:42:34;;;;;;;3.77;0.93;;;11.80;84.50;;;;;;4995293;28;20049;-81
2021/05/17 02:45:05;;;;;;;1.70;0.60;;;11.80;84.40;;;;;;5011842;28;20049;-80
2021/05/17 02:47:35;;;;;;;3.80;0.90;;;11.70;84.40;;;;;;5007004;28;20250;-80
2021/05/17 02:50:02;;;;;;;1.77;0.60;;;11.70;84.50;;;;;;5010034;28;20132;-80
2021/05/17 02:52:31;;;;;;;3.10;0.70;;;11.70;84.30;;;;;;4995382;28;20087;-81
2021/05/17 02:55:06;;;;;;;3.40;0.80;;;11.70;84.30;;;;;;5009058;28;20205;-79
2021/05/17 02:58:01;;;;;;;2.27;0.60;;;11.70;84.30;;;;;;5011268;28;20037;-81
2021/05/17 03:00:32;;;;;;;2.00;0.60;;;11.70;84.20;;;;;;5011780;28;20470;-80
2021/05/17 03:03:11;;;;;;;2.10;0.70;;;11.70;84.20;;;;;;5010493;28;20046;-80
2021/05/17 03:05:40;;;;;;;2.00;0.47;;;11.60;84.20;;;;;;5010178;28;20034;-80
2021/05/17 03:08:07;;;;;;;2.43;0.50;;;11.60;84.30;;;;;;5017983;28;20033;-80
2021/05/17 03:10:36;;;;;;;1.67;0.60;;;11.60;84.40;;;;;;5016791;28;20034;-80
2021/05/17 03:13:14;;;;;;;2.47;0.50;;;11.50;84.40;;;;;;5041217;28;20037;-79
2021/05/17 03:15:42;;;;;;;4.37;0.60;;;11.50;84.50;;;;;;5030802;28;20079;-81
2021/05/17 03:18:09;;;;;;;3.80;0.50;;;11.40;84.60;;;;;;5019762;28;20073;-79
2021/05/17 03:20:35;;;;;;;5.80;0.50;;;11.40;84.80;;;;;;5019252;28;20029;-78
2021/05/17 03:23:05;;;;;;;1.63;0.60;;;11.40;84.90;;;;;;5010291;28;20026;-79
2021/05/17 03:25:33;;;;;;;2.20;0.50;;;11.40;84.90;;;;;;5010096;28;20054;-79
2021/05/17 03:27:59;;;;;;;2.70;0.60;;;11.40;84.80;;;;;;5009770;28;20084;-78
2021/05/17 03:30:26;;;;;;;1.73;0.50;;;11.50;84.70;;;;;;5011000;28;20065;-78
2021/05/17 03:32:51;;;;;;;2.33;0.63;;;11.50;84.70;;;;;;5010415;28;20026;-79
2021/05/17 03:35:18;;;;;;;3.10;0.70;;;11.50;84.70;;;;;;4992468;28;20492;-78
2021/05/17 03:37:44;;;;;;;2.00;0.60;;;11.50;84.70;;;;;;5011984;28;20112;-79
2021/05/17 03:40:12;;;;;;;1.97;0.50;;;11.50;84.80;;;;;;5001633;28;20054;-78
2021/05/17 03:42:38;;;;;;;2.20;0.60;;;11.50;84.80;;;;;;5010624;28;20038;-78
2021/05/17 03:45:06;;;;;;;2.40;0.60;;;11.50;84.70;;;;;;5010214;28;20038;-78
2021/05/17 03:47:32;;;;;;;3.40;0.60;;;11.50;84.80;;;;;;4993602;28;20030;-78
2021/05/17 03:49:57;;;;;;;2.90;0.60;;;11.60;84.70;;;;;;5009128;28;20099;-79
2021/05/17 03:52:23;;;;;;;1.93;0.50;;;11.60;84.60;;;;;;5009132;28;20092;-78
2021/05/17 03:54:48;;;;;;;3.23;0.63;;;11.60;84.50;;;;;;5009706;28;20061;-80
2021/05/17 03:57:15;;;;;;;3.60;0.80;;;11.70;84.50;;;;;;5002925;28;20461;-80
2021/05/17 03:59:45;;;;;;;3.47;0.60;;;11.70;84.60;;;;;;4999241;28;20034;-79
2021/05/17 04:02:14;;;;;;;3.07;0.60;;;11.60;84.60;;;;;;4994412;28;20071;-78
2021/05/17 04:04:47;;;;;;;5.03;0.60;;;11.60;84.70;;;;;;5009506;28;20378;-79
2021/05/17 04:07:44;;;;;;;;;;;11.60;84.60;;;;;;4992962;28;20501;-79
2021/05/17 04:15:38;;;;;;;2.33;0.70;;;11.70;84.70;;;;;;5008905;28;20157;-78
2021/05/17 04:18:04;;;;;;;2.73;0.80;;;11.70;84.70;;;;;;4993063;28;20121;-79
2021/05/17 04:20:29;;;;;;;3.30;0.57;;;11.70;84.70;;;;;;4964322;28;20049;-79
2021/05/17 04:22:55;;;;;;;3.90;0.50;;;11.70;84.60;;;;;;4958182;28;20076;-79
2021/05/17 04:25:21;;;;;;;2.53;0.77;;;11.80;84.50;;;;;;5003729;28;20054;-79
2021/05/17 04:27:46;;;;;;;2.33;0.97;;;11.80;84.40;;;;;;5010575;28;20073;-78
2021/05/17 04:30:12;;;;;;;3.50;0.73;;;11.80;84.30;;;;;;4997970;28;20156;-79
2021/05/17 04:32:38;;;;;;;3.13;0.60;;;11.80;84.50;;;;;;5022659;28;20037;-79
2021/05/17 04:35:04;;;;;;;4.63;0.90;;;11.80;84.40;;;;;;5000565;28;20045;-80
2021/05/17 04:37:30;;;;;;;2.47;0.70;;;11.90;84.40;;;;;;5009919;28;20041;-80
2021/05/17 04:39:56;;;;;;;3.33;0.60;;;11.90;84.50;;;;;;4992042;28;20034;-79
2021/05/17 04:42:21;;;;;;;3.90;0.60;;;11.90;84.40;;;;;;4993062;28;20095;-80
2021/05/17 04:44:47;;;;;;;4.00;0.73;;;12.00;84.30;;;;;;4993633;28;20502;-79
2021/05/17 04:47:13;;;;;;;2.70;0.80;;;12.00;84.20;;;;;;4992063;28;20649;-79
2021/05/17 04:49:39;;;;;;;3.40;0.70;;;12.10;84.20;;;;;;4989678;28;20411;-80
2021/05/17 04:52:05;;;;;;;5.60;0.70;;;12.10;83.90;;;;;;4992345;28;20042;-79
2021/05/17 04:54:31;;;;;;;3.77;0.70;;;12.10;84.00;;;;;;4993355;28;20030;-79
2021/05/17 04:56:56;;;;;;;3.20;0.60;;;12.10;83.90;;;;;;4997904;28;20030;-83
2021/05/17 04:59:22;;;;;;;4.30;0.70;;;12.20;83.90;;;;;;5018790;28;20030;-79
2021/05/17 05:01:47;;;;;;;3.57;0.70;;;12.20;83.60;;;;;;4993498;28;20095;-80
2021/05/17 05:04:14;;;;;;;2.67;0.60;;;12.30;83.60;;;;;;5007957;28;20588;-81
2021/05/17 05:06:39;;;;;;;1.70;0.57;;;12.40;83.30;;;;;;5010758;28;20038;-80
2021/05/17 05:09:05;;;;;;;2.50;0.60;;;12.50;83.10;;;;;;5029062;28;20041;-79
2021/05/17 05:11:31;;;;;;;3.90;0.70;;;12.50;82.80;;;;;;5011110;28;20486;-81
2021/05/17 05:13:57;;;;;;;3.23;0.60;;;12.60;82.60;;;;;;5008344;28;20030;-82
2021/05/17 05:16:22;;;;;;;3.27;0.90;;;12.70;82.50;;;;;;5008483;28;20030;-82
2021/05/17 05:18:48;;;;;;;5.57;1.10;;;12.80;82.30;;;;;;4990773;28;20088;-83
2021/05/17 05:21:13;;;;;;;10.40;0.87;;;13.00;81.90;;;;;;5010952;28;20132;-82
2021/05/17 05:23:39;;;;;;;4.47;0.60;;;13.10;81.30;;;;;;4998100;28;20033;-82
2021/05/17 05:31:27;;;;;;;4.53;0.63;;;13.00;80.60;;;;;;4993766;28;20135;-82
2021/05/17 05:33:53;;;;;;;3.67;0.60;;;13.20;80.90;;;;;;4997159;28;20065;-80
2021/05/17 05:36:18;;;;;;;1.73;0.35;;;13.70;80.20;;;;;;5011230;28;20034;-81
2021/05/17 05:38:44;;;;;;;4.22;0.65;;;13.90;78.70;;;;;;5014076;28;20034;-80
2021/05/17 05:41:10;;;;;;;5.28;0.85;;;14.10;78.30;;;;;;4995765;28;20072;-81
2021/05/17 05:43:36;;;;;;;3.92;0.45;;;14.20;77.80;;;;;;5014391;28;20163;-81
2021/05/17 05:46:01;;;;;;;4.78;0.50;;;14.10;77.70;;;;;;5011360;28;20374;-83
2021/05/17 05:48:27;;;;;;;3.03;0.50;;;14.40;77.20;;;;;;5012030;28;20030;-80
2021/05/17 05:50:53;;;;;;;4.55;0.70;;;14.70;76.40;;;;;;4995629;28;20045;-80
2021/05/17 05:53:19;;;;;;;6.32;1.05;;;14.90;75.60;;;;;;5011529;28;20115;-81
2021/05/17 05:55:46;;;;;;;3.70;0.43;;;14.90;75.10;;;;;;5013445;28;20038;-82
2021/05/17 05:58:13;;;;;;;3.88;0.50;;;15.00;74.70;;;;;;5011036;28;20057;-82
2021/05/17 06:00:39;;;;;;;3.60;0.45;;;15.10;74.20;;;;;;4995515;28;20045;-78
2021/05/17 06:03:05;;;;;;;3.67;0.50;;;15.10;74.20;;;;;;4995808;28;20076;-81
2021/05/17 06:05:31;;;;;;;2.55;0.55;;;15.20;74.20;;;;;;4991080;28;20073;-80
2021/05/17 06:07:58;;;;;;;3.28;0.60;;;15.30;73.90;;;;;;4994376;28;20041;-79
2021/05/17 06:10:24;;;;;;;3.30;0.50;;;15.40;73.60;;;;;;5005810;28;20040;-80
2021/05/17 06:12:50;;;;;;;2.95;0.40;;;15.30;73.30;;;;;;5010827;28;20454;-79
2021/05/17 06:15:18;;;;;;;3.35;0.47;;;15.20;73.40;;;;;;4995935;28;20379;-79
2021/05/17 06:17:44;;;;;;;2.85;0.50;;;15.00;73.60;;;;;;4995323;28;20022;-78
2021/05/17 06:20:11;;;;;;;3.63;0.45;;;14.80;73.90;;;;;;4994095;28;20056;-80
2021/05/17 06:22:38;;;;;;;2.80;0.45;;;14.70;74.50;;;;;;4995924;28;20049;-80
2021/05/17 06:25:12;;;;;;;3.35;0.60;;;14.70;74.00;;;;;;5011358;28;20069;-80
2021/05/17 06:27:39;;;;;;;4.15;0.63;;;14.80;74.30;;;;;;4996080;28;20111;-78
2021/05/17 06:30:08;;;;;;;3.35;0.50;;;15.00;73.90;;;;;;5005188;28;20404;-78
2021/05/17 06:32:35;;;;;;;4.18;0.55;;;15.50;73.90;;;;;;5013388;28;20037;-78
2021/05/17 06:35:02;;;;;;;3.72;0.73;;;15.90;72.20;;;;;;5007939;28;20045;-78
2021/05/17 06:37:27;;;;;;;6.10;0.60;;;15.90;71.60;;;;;;4994470;28;20113;-77
2021/05/17 06:39:53;;;;;;;6.22;0.60;;;15.90;71.50;;;;;;5001911;28;20168;-80
2021/05/17 06:42:19;;;;;;;3.70;0.60;;;15.90;70.70;;;;;;4971218;28;20084;-78
2021/05/17 06:44:45;;;;;;;4.93;0.63;;;15.70;69.80;;;;;;5005198;28;20123;-80
2021/05/17 06:47:11;;;;;;;3.47;0.50;;;15.40;70.50;;;;;;5014387;28;20089;-82
2021/05/17 06:49:38;;;;;;;4.25;0.60;;;15.30;71.50;;;;;;4981061;28;20030;-80
2021/05/17 06:52:06;;;;;;;3.92;0.80;;;15.40;71.60;;;;;;5013384;28;20131;-79
2021/05/17 06:54:32;;;;;;;3.60;0.82;;;15.70;71.30;;;;;;5020099;28;20018;-78
2021/05/17 06:59:28;;;;;;;6.20;1.20;;;16.00;70.10;;;;;;5006596;28;20049;-80
2021/05/17 07:01:55;;;;;;;4.40;0.80;;;16.00;70.10;;;;;;5004105;28;20022;-79
2021/05/17 07:04:22;;;;;;;3.65;1.40;;;15.90;69.90;;;;;;5008763;28;20143;-77
2021/05/17 07:06:54;;;;;;;6.00;1.75;;;15.70;70.10;;;;;;4987847;28;20046;-80
2021/05/17 07:12:14;;;;;;;6.20;1.35;;;15.50;71.00;;;;;;5009844;28;20081;-77
2021/05/17 07:14:40;;;;;;;4.10;0.93;;;15.30;71.10;;;;;;5009986;28;20030;-79
2021/05/17 07:17:07;;;;;;;5.45;2.30;;;15.10;71.60;;;;;;5010762;28;20433;-78
2021/05/17 07:19:33;;;;;;;8.07;3.45;;;15.10;71.90;;;;;;4993250;28;20029;-79
2021/05/17 07:24:43;;;;;;;4.88;1.15;;;15.10;71.70;;;;;;5000644;28;20809;-79
2021/05/17 07:27:09;;;;;;;7.20;3.45;;;15.10;70.80;;;;;;5009486;28;20501;-80
2021/05/17 07:29:37;;;;;;;15.77;7.47;;;15.00;71.20;;;;;;4994691;28;20058;-81
2021/05/17 07:32:06;;;;;;;13.57;5.80;;;14.90;71.50;;;;;;4995209;28;20030;-78
2021/05/17 07:34:34;;;;;;;4.00;0.90;;;15.00;72.20;;;;;;5008852;28;20068;-79
2021/05/17 07:37:00;;;;;;;9.32;3.90;;;14.90;71.00;;;;;;5010464;28;20470;-78
2021/05/17 07:39:26;;;;;;;7.07;2.92;;;15.10;71.70;;;;;;5006623;28;20038;-79
2021/05/17 07:41:53;;;;;;;10.30;4.85;;;15.30;70.30;;;;;;5009837;28;20034;-79
2021/05/17 07:44:18;;;;;;;7.65;4.30;;;15.60;70.60;;;;;;5009643;28;20041;-81
2021/05/17 07:46:45;;;;;;;6.22;3.28;;;15.90;70.20;;;;;;4993924;28;20104;-77
2021/05/17 07:49:16;;;;;;;18.65;9.10;;;16.20;69.60;;;;;;5010463;28;20034;-78
2021/05/17 07:51:43;;;;;;;14.65;6.60;;;16.50;69.60;;;;;;4995265;28;20029;-77
2021/05/17 07:54:11;;;;;;;4.85;1.70;;;16.90;68.70;;;;;;5007413;28;20387;-76
2021/05/17 07:56:37;;;;;;;9.63;5.05;;;17.50;66.80;;;;;;5008561;28;20049;-77
2021/05/17 07:59:03;;;;;;;11.25;5.32;;;18.40;65.90;;;;;;5008575;28;20115;-76
2021/05/17 08:01:29;;;;;;;11.50;6.72;;;18.90;64.10;;;;;;5001751;28;20036;-77
2021/05/17 08:03:55;;;;;;;7.07;3.67;;;18.90;62.40;;;;;;5008524;28;20054;-78
2021/05/17 08:06:23;;;;;;;8.40;3.90;;;18.50;63.30;;;;;;4992602;28;20062;-81
2021/05/17 08:08:49;;;;;;;13.13;5.88;;;17.80;64.00;;;;;;4991548;28;20466;-79
2021/05/17 08:11:15;;;;;;;6.55;4.30;;;17.10;66.40;;;;;;4993231;28;20037;-78
2021/05/17 08:13:41;;;;;;;8.88;5.30;;;16.60;68.70;;;;;;4993319;28;20041;-78
2021/05/17 08:16:08;;;;;;;10.02;7.05;;;16.20;70.20;;;;;;4996872;28;20030;-77
2021/05/17 08:18:34;;;;;;;7.57;5.10;;;15.90;71.20;;;;;;4989307;28;20065;-79
2021/05/17 08:21:00;;;;;;;12.45;7.22;;;15.90;72.40;;;;;;4986044;28;20034;-78
2021/05/17 08:23:26;;;;;;;4.75;2.22;;;16.30;72.60;;;;;;5006704;28;20603;-80
2021/05/17 08:25:51;;;;;;;10.73;6.70;;;17.30;70.80;;;;;;5008741;28;20088;-77
2021/05/17 08:28:17;;;;;;;16.70;10.98;;;18.10;68.90;;;;;;5009070;28;20475;-77
2021/05/17 08:30:44;;;;;;;8.80;5.38;;;18.40;67.50;;;;;;5007981;28;20216;-77
2021/05/17 08:33:12;;;;;;;4.60;2.00;;;18.80;66.60;;;;;;5009396;28;20030;-77
2021/05/17 08:35:38;;;;;;;15.10;11.18;;;18.90;62.90;;;;;;5006574;28;20482;-78
2021/05/17 08:38:05;;;;;;;18.42;13.65;;;19.00;64.60;;;;;;4993198;28;20049;-77
2021/05/17 08:40:36;;;;;;;9.23;6.80;;;19.70;63.90;;;;;;5008034;28;20026;-75
2021/05/17 08:43:03;;;;;;;8.23;4.38;;;20.40;62.30;;;;;;5009420;28;20026;-76
2021/05/17 08:45:29;;;;;;;5.88;3.22;;;20.90;59.40;;;;;;5008120;28;20117;-79
2021/05/17 08:47:55;;;;;;;6.88;4.45;;;20.70;58.40;;;;;;5009487;28;20022;-76
2021/05/17 08:50:21;;;;;;;10.07;6.47;;;20.30;59.70;;;;;;5009091;28;20026;-78
2021/05/17 08:52:47;;;;;;;8.88;4.70;;;19.90;60.70;;;;;;4988842;28;20038;-75
2021/05/17 08:55:13;;;;;;;6.93;2.72;;;19.30;60.80;;;;;;5007242;28;20072;-77
2021/05/17 08:57:42;;;;;;;5.85;2.30;;;18.80;62.00;;;;;;5008700;28;20026;-78
2021/05/17 09:00:08;;;;;;;5.95;3.13;;;18.20;63.60;;;;;;5008791;28;20030;-75
2021/05/17 09:02:34;;;;;;;5.95;3.10;;;17.60;66.60;;;;;;5007990;28;20085;-77
2021/05/17 09:05:24;;;;;;;3.63;1.65;;;17.30;68.10;;;;;;5007880;28;20453;-77
2021/05/17 09:07:54;;;;;;;4.82;2.40;;;17.30;69.00;;;;;;5010390;28;20172;-77
2021/05/17 09:10:24;;;;;;;21.25;6.03;;;17.20;69.00;;;;;;5008933;28;20072;-76
2021/05/17 09:13:07;;;;;;;6.15;2.08;;;17.30;69.30;;;;;;5010390;28;20100;-76
2021/05/17 09:15:33;;;;;;;6.35;1.80;;;17.90;68.80;;;;;;5007796;28;20053;-81
2021/05/17 09:18:01;;;;;;;5.18;1.48;;;18.30;68.00;;;;;;5008663;28;20516;-77
2021/05/17 09:20:35;;;;;;;4.40;0.80;;;18.60;67.40;;;;;;5008335;28;20038;-77
2021/05/17 09:23:21;;;;;;;13.00;1.45;;;18.60;66.40;;;;;;5013569;28;20060;-77
2021/05/17 09:26:08;;;;;;;2.20;0.80;;;18.40;66.50;;;;;;5005917;28;20049;-75
2021/05/17 09:28:45;;;;;;;6.20;0.95;;;18.00;67.10;;;;;;5009562;28;20042;-78
2021/05/17 09:31:16;;;;;;;2.40;0.60;;;17.40;69.00;;;;;;5008261;28;20032;-78
2021/05/17 09:33:51;;;;;;;3.38;0.80;;;17.00;70.40;;;;;;5007764;28;20098;-79
2021/05/17 09:36:32;;;;;;;2.35;0.60;;;16.90;71.00;;;;;;4996287;28;20038;-79
2021/05/17 09:39:01;;;;;;;2.88;0.70;;;16.90;71.00;;;;;;5006672;28;20037;-79
2021/05/17 09:41:43;;;;;;;4.53;2.28;;;17.30;70.80;;;;;;5007390;28;20022;-77
2021/05/17 09:44:17;;;;;;;7.40;3.53;;;17.40;70.10;;;;;;5003871;28;20022;-78
2021/05/17 09:47:07;;;;;;;9.05;5.22;;;17.30;70.10;;;;;;5006173;28;20041;-78
2021/05/17 09:49:36;;;;;;;5.10;3.08;;;17.50;70.40;;;;;;5009804;28;20029;-77
2021/05/17 09:52:29;;;;;;;3.33;1.20;;;18.30;70.10;;;;;;5008017;28;20056;-79
2021/05/17 09:54:59;;;;;;;;;;;19.30;68.20;;;;;;5007114;28;20046;-77
2021/05/17 09:57:34;;;;;;;1.98;0.60;;;19.90;65.50;;;;;;5008462;28;19917;-76
2021/05/17 10:00:17;;;;;;;2.67;0.60;;;20.20;64.20;;;;;;5007947;28;20028;-78
2021/05/17 10:02:45;;;;;;;2.17;0.60;;;20.60;63.50;;;;;;4990422;28;20102;-78
2021/05/17 10:05:33;;;;;;;1.73;0.40;;;20.50;61.90;;;;;;5008434;28;20494;-76
2021/05/17 10:08:09;;;;;;;1.98;0.40;;;19.90;60.80;;;;;;5013283;28;20022;-77
2021/05/17 10:10:35;;;;;;;0.68;0.22;;;19.30;62.20;;;;;;5011627;28;20040;-76
2021/05/17 10:13:03;;;;;;;1.98;0.47;;;19.30;62.50;;;;;;5010799;28;20030;-78
2021/05/17 10:15:32;;;;;;;2.08;0.40;;;19.30;62.40;;;;;;5011388;28;20030;-78
2021/05/17 10:17:59;;;;;;;1.40;0.30;;;19.40;62.50;;;;;;5011544;28;20045;-76
2021/05/17 10:20:26;;;;;;;1.92;0.40;;;19.50;61.50;;;;;;5013471;28;20030;-78
2021/05/17 10:22:54;;;;;;;1.55;0.35;;;19.50;62.40;;;;;;4994549;28;20548;-77
2021/05/17 10:25:25;;;;;;;0.90;0.22;;;19.60;61.80;;;;;;5009588;28;20092;-78
2021/05/17 10:27:58;;;;;;;1.10;0.40;;;19.60;61.20;;;;;;5012802;28;20121;-77
2021/05/17 10:30:26;;;;;;;1.10;0.20;;;19.60;61.10;;;;;;5011363;28;20545;-78
2021/05/17 10:33:01;;;;;;;1.30;0.30;;;19.70;61.80;;;;;;4990914;28;20117;-79
2021/05/17 10:35:35;;;;;;;1.25;0.50;;;19.60;61.30;;;;;;4996406;28;20033;-79
2021/05/17 10:38:15;;;;;;;2.35;0.73;;;19.30;61.70;;;;;;5011263;28;20147;-77
2021/05/17 10:40:44;;;;;;;2.85;1.55;;;19.10;62.90;;;;;;5010736;28;20022;-77
2021/05/17 10:43:29;;;;;;;2.33;0.70;;;18.90;64.00;;;;;;5012378;28;20475;-78
2021/05/17 10:49:19;;;;;;;1.65;0.57;;;18.20;66.90;;;;;;5011641;28;20083;-78
2021/05/17 10:51:44;;;;;;;3.10;0.90;;;17.70;67.90;;;;;;5001863;28;20105;-79
2021/05/17 10:54:30;;;;;;;1.20;0.40;;;17.20;69.10;;;;;;5002470;28;20039;-80
2021/05/17 10:57:04;;;;;;;2.05;0.63;;;16.70;70.40;;;;;;4998259;28;20493;-81
2021/05/17 11:02:18;;;;;;;2.53;0.40;;;16.10;72.30;;;;;;5004564;28;20072;-80
2021/05/17 11:04:49;;;;;;;2.75;0.70;;;15.70;73.30;;;;;;4999950;28;20049;-81
2021/05/17 11:07:16;;;;;;;2.17;0.60;;;15.50;74.50;;;;;;5002548;28;20036;-81
2021/05/17 11:09:50;;;;;;;4.53;0.73;;;15.50;74.70;;;;;;5010862;28;20128;-80
2021/05/17 11:12:28;;;;;;;22.52;3.08;;;15.40;75.20;;;;;;5009902;28;20032;-80
2021/05/17 11:15:08;;;;;;;6.07;1.88;;;15.50;75.10;;;;;;5001972;28;20410;-82
2021/05/17 11:18:05;;;;;;;4.40;1.23;;;15.50;75.30;;;;;;4994206;28;20038;-79
2021/05/17 11:23:27;;;;;;;6.20;2.28;;;15.50;76.20;;;;;;5012190;28;20371;-79
2021/05/17 11:28:43;;;;;;;2.67;1.20;;;15.70;76.00;;;;;;5012047;28;20052;-77
2021/05/17 11:33:58;;;;;;;7.60;3.15;;;16.20;75.30;;;;;;5011654;28;20087;-79
2021/05/17 11:36:46;;;;;;;6.35;2.90;;;16.50;75.20;;;;;;5009734;28;20048;-79
2021/05/17 11:39:23;;;;;;;3.67;2.17;;;16.90;74.70;;;;;;5010169;28;20092;-78
2021/05/17 11:41:58;;;;;;;6.80;3.08;;;17.30;74.00;;;;;;5010332;28;20045;-78
2021/05/17 11:44:31;;;;;;;9.02;3.03;;;17.50;73.30;;;;;;5002704;28;20042;-77
2021/05/17 11:46:58;;;;;;;5.68;3.35;;;17.70;72.60;;;;;;4992036;28;20104;-78
2021/05/17 11:49:26;;;;;;;4.78;3.72;;;17.90;72.50;;;;;;5006457;28;20030;-77
2021/05/17 11:52:04;;;;;;;5.47;3.45;;;17.90;72.00;;;;;;4994913;28;20041;-79
2021/05/17 11:54:42;;;;;;;4.03;2.70;;;18.00;72.20;;;;;;5004777;28;20437;-78
2021/05/17 11:57:09;;;;;;;5.47;3.90;;;18.30;72.20;;;;;;5009849;28;20038;-77
2021/05/17 11:59:36;;;;;;;3.38;2.50;;;18.70;71.70;;;;;;5011257;28;20462;-77
2021/05/17 12:02:04;;;;;;;4.55;2.90;;;18.90;71.10;;;;;;5011098;28;20042;-79
2021/05/17 12:04:34;;;;;;;3.53;2.72;;;19.00;70.90;;;;;;5008652;28;20049;-78
2021/05/17 12:07:08;;;;;;;7.40;3.22;;;18.80;70.60;;;;;;5011370;28;20048;-80
2021/05/17 12:09:51;;;;;;;4.45;2.53;;;18.80;70.70;;;;;;5009666;28;20030;-78
2021/05/17 12:12:17;;;;;;;3.33;2.22;;;19.10;70.60;;;;;;4992650;28;20041;-77
2021/05/17 12:14:48;;;;;;;2.95;2.22;;;19.40;70.80;;;;;;4992843;28;20080;-76
2021/05/17 12:17:25;;;;;;;4.10;2.95;;;19.50;69.90;;;;;;5010253;28;20018;-77
2021/05/17 12:20:03;;;;;;;3.13;2.40;;;19.40;69.40;;;;;;5000365;28;20046;-77
2021/05/17 12:22:33;;;;;;;4.30;3.22;;;19.20;69.10;;;;;;4991921;28;20029;-76
2021/05/17 12:25:01;;;;;;;3.65;2.60;;;19.10;68.80;;;;;;5001678;28;20128;-80
2021/05/17 12:27:27;;;;;;;4.63;2.95;;;19.00;69.10;;;;;;4992871;28;20030;-76
2021/05/17 12:30:05;;;;;;;4.28;2.58;;;18.90;68.90;;;;;;5009114;28;20539;-77
2021/05/17 12:32:36;;;;;;;6.88;2.65;;;18.60;68.60;;;;;;5008819;28;20058;-78
2021/05/17 12:35:21;;;;;;;3.53;2.70;;;18.40;69.50;;;;;;5008294;28;20124;-79
2021/05/17 12:37:54;;;;;;;4.10;2.80;;;18.20;70.30;;;;;;5010859;28;20160;-77
2021/05/17 12:40:40;;;;;;;3.80;2.88;;;18.00;70.60;;;;;;4995159;28;20030;-77
2021/05/17 12:43:25;;;;;;;4.93;2.75;;;17.90;70.90;;;;;;4993896;28;20060;-80
2021/05/17 12:45:54;;;;;;;7.50;3.85;;;17.50;71.20;;;;;;5007567;28;20100;-80
2021/05/17 12:48:26;;;;;;;5.88;4.15;;;17.10;72.80;;;;;;5007027;28;20038;-82
2021/05/17 12:51:13;;;;;;;5.60;3.83;;;16.80;73.90;;;;;;5008870;28;20034;-80
2021/05/17 12:53:38;;;;;;;4.72;4.05;;;16.70;74.60;;;;;;5009576;28;20022;-80
2021/05/17 12:56:04;;;;;;;6.05;4.47;;;16.80;74.40;;;;;;5011375;28;20069;-79
2021/05/17 12:58:37;;;;;;;8.35;5.10;;;17.00;74.10;;;;;;5007362;28;20033;-80
2021/05/17 13:01:14;;;;;;;7.18;4.25;;;17.20;74.10;;;;;;5014817;28;20018;-83
2021/05/17 13:03:49;;;;;;;6.93;4.25;;;17.30;73.50;;;;;;5012141;28;20448;-81
2021/05/17 13:06:22;;;;;;;6.47;3.70;;;17.20;72.60;;;;;;4990004;28;20459;-82
2021/05/17 13:08:51;;;;;;;;;;;17.10;73.00;;;;;;4992083;28;20064;-80
2021/05/17 13:11:33;;;;;;;7.82;4.68;;;17.10;72.70;;;;;;5010493;28;19932;-80
2021/05/17 13:14:12;;;;;;;6.05;4.25;;;17.00;72.70;;;;;;5003227;28;20022;-79
2021/05/17 13:17:00;;;;;;;7.55;4.40;;;17.00;72.90;;;;;;5010276;28;20089;-81
2021/05/17 13:33:00;;;;;;;6.63;5.68;;;16.80;74.50;;;;;;5001008;28;20568;-79
2021/05/17 13:35:26;;;;;;;8.80;5.70;;;16.90;73.80;;;;;;4999671;28;20045;-78
2021/05/17 13:37:52;;;;;;;6.60;4.97;;;16.90;73.50;;;;;;4984923;28;20398;-78
2021/05/17 13:40:18;;;;;;;7.50;4.40;;;16.80;73.90;;;;;;4985908;28;20030;-80
2021/05/17 13:42:44;;;;;;;3.72;2.80;;;16.80;74.50;;;;;;4992990;28;20133;-77
2021/05/17 13:45:12;;;;;;;5.05;2.38;;;16.90;73.20;;;;;;5011064;28;20112;-80
2021/05/17 13:47:38;;;;;;;2.55;2.05;;;17.10;73.20;;;;;;5011937;28;20038;-78
2021/05/17 13:50:07;;;;;;;3.75;2.55;;;16.90;72.60;;;;;;5013064;28;20030;-77